createdAt,value
2022-11-16T00:01:16.657Z,7.60
2022-11-16T00:03:45.003Z,7.90
2022-11-16T00:06:14.574Z,8.50
2022-11-16T00:08:45.738Z,6.57
2022-11-16T00:11:15.147Z,7.87
2022-11-16T00:13:44.432Z,11.60
2022-11-16T00:16:16.473Z,8.70
2022-11-16T00:18:44.251Z,6.60
2022-11-16T00:21:12.370Z,6.27
2022-11-16T00:23:40.441Z,7.20
2022-11-16T00:26:13.401Z,6.43
2022-11-16T00:28:41.314Z,5.17
2022-11-16T00:31:10.466Z,5.70
2022-11-16T00:33:38.667Z,5.23
2022-11-16T00:36:08.753Z,5.20
2022-11-16T00:38:37.662Z,5.40
2022-11-16T00:41:06.767Z,5.97
2022-11-16T00:43:37.128Z,5.60
2022-11-16T00:46:05.448Z,5.50
2022-11-16T00:48:33.608Z,5.37
2022-11-16T00:51:01.679Z,5.67
2022-11-16T00:53:29.522Z,5.27
2022-11-16T00:55:57.293Z,5.73
2022-11-16T00:58:26.235Z,4.93
2022-11-16T01:01:09.894Z,5.33
2022-11-16T01:03:38.486Z,5.47
2022-11-16T01:06:08.733Z,4.77
2022-11-16T01:08:38.874Z,5.13
2022-11-16T01:11:26.986Z,5.57
2022-11-16T01:13:55.868Z,5.50
2022-11-16T01:16:25.743Z,5.23
2022-11-16T01:18:55.800Z,5.40
2022-11-16T01:21:24.828Z,6.27
2022-11-16T01:23:53.872Z,5.47
2022-11-16T01:26:21.652Z,6.60
2022-11-16T01:28:49.429Z,7.77
2022-11-16T01:31:18.146Z,9.33
2022-11-16T01:33:48.896Z,6.57
2022-11-16T01:36:23.930Z,6.13
2022-11-16T01:38:51.874Z,6.17
2022-11-16T01:41:24.738Z,5.60
2022-11-16T01:43:58.786Z,6.67
2022-11-16T01:46:31.981Z,5.10
2022-11-16T01:49:05.456Z,5.17
2022-11-16T01:51:34.700Z,5.33
2022-11-16T01:54:06.136Z,5.23
2022-11-16T01:56:37.102Z,4.83
2022-11-16T01:59:11.925Z,5.37
2022-11-16T02:01:40.613Z,6.00
2022-11-16T02:04:11.397Z,5.30
2022-11-16T02:06:57.777Z,8.40
2022-11-16T02:09:54.266Z,5.00
2022-11-16T02:12:56.837Z,4.97
2022-11-16T02:15:41.401Z,5.60
2022-11-16T02:18:25.871Z,5.20
2022-11-16T02:21:21.845Z,5.97
2022-11-16T02:24:12.723Z,5.80
2022-11-16T02:26:57.654Z,5.53
2022-11-16T02:29:33.614Z,5.30
2022-11-16T02:32:05.758Z,6.30
2022-11-16T02:34:39.287Z,5.50
2022-11-16T02:37:10.589Z,5.23
2022-11-16T02:39:41.054Z,4.83
2022-11-16T02:42:12.769Z,5.37
2022-11-16T02:44:45.946Z,5.60
2022-11-16T02:47:21.469Z,5.47
2022-11-16T02:49:57.328Z,5.50
2022-11-16T02:52:26.819Z,5.10
2022-11-16T02:54:54.682Z,7.03
2022-11-16T02:57:41.668Z,6.53
2022-11-16T03:00:21.104Z,5.90
2022-11-16T03:03:01.205Z,6.50
2022-11-16T03:05:33.358Z,5.93
2022-11-16T03:08:15.829Z,6.63
2022-11-16T03:11:05.998Z,6.80
2022-11-16T03:13:36.803Z,5.67
2022-11-16T03:16:11.310Z,5.97
2022-11-16T03:18:41.261Z,6.63
2022-11-16T03:21:16.448Z,6.80
2022-11-16T03:23:46.728Z,6.20
2022-11-16T03:26:17.662Z,6.70
2022-11-16T03:28:53.400Z,6.77
2022-11-16T03:31:28.115Z,7.23
2022-11-16T03:33:58.465Z,6.60
2022-11-16T03:36:30.183Z,7.03
2022-11-16T03:39:03.130Z,7.27
2022-11-16T03:41:34.954Z,6.13
2022-11-16T03:44:04.033Z,6.13
2022-11-16T03:46:33.483Z,8.43
2022-11-16T03:49:02.312Z,9.33
2022-11-16T03:51:34.787Z,9.70
2022-11-16T03:54:02.993Z,8.63
2022-11-16T03:56:31.030Z,9.63
2022-11-16T03:58:58.836Z,10.37
2022-11-16T04:01:26.686Z,8.53
2022-11-16T04:03:55.931Z,8.80
2022-11-16T04:06:42.073Z,11.13
2022-11-16T04:09:23.996Z,7.07
2022-11-16T04:12:09.384Z,7.03
2022-11-16T04:14:55.945Z,8.77
2022-11-16T04:17:44.109Z,6.30
2022-11-16T04:20:33.344Z,6.63
2022-11-16T04:23:25.172Z,8.07
2022-11-16T04:25:54.474Z,7.83
2022-11-16T04:28:27.484Z,6.50
2022-11-16T04:31:18.473Z,7.17
2022-11-16T04:34:09.787Z,7.40
2022-11-16T04:37:10.655Z,6.40
2022-11-16T04:39:40.125Z,7.00
2022-11-16T04:42:15.495Z,6.87
2022-11-16T04:45:03.001Z,6.60
2022-11-16T04:47:37.641Z,6.57
2022-11-16T04:50:06.673Z,7.30
2022-11-16T04:52:36.091Z,6.93
2022-11-16T04:55:05.930Z,7.07
2022-11-16T04:57:33.691Z,7.90
2022-11-16T05:00:06.218Z,9.03
2022-11-16T05:02:36.122Z,9.80
2022-11-16T05:05:04.138Z,7.73
2022-11-16T05:07:31.993Z,7.53
2022-11-16T05:10:11.131Z,8.07
2022-11-16T05:12:39.638Z,8.60
2022-11-16T05:15:10.757Z,9.43
2022-11-16T05:17:38.548Z,8.17
2022-11-16T05:20:30.038Z,8.53
2022-11-16T05:23:03.221Z,8.33
2022-11-16T05:25:38.037Z,7.67
2022-11-16T05:28:10.320Z,7.40
2022-11-16T05:30:41.619Z,8.43
2022-11-16T05:33:10.471Z,7.80
2022-11-16T05:35:42.125Z,8.30
2022-11-16T05:38:10.050Z,8.10
2022-11-16T05:40:43.872Z,7.93
2022-11-16T05:43:11.971Z,6.90
2022-11-16T05:45:46.830Z,7.03
2022-11-16T05:48:16.631Z,7.17
2022-11-16T05:50:44.845Z,6.93
2022-11-16T05:53:19.561Z,7.53
2022-11-16T05:55:49.579Z,7.77
2022-11-16T05:58:18.942Z,8.40
2022-11-16T06:00:48.155Z,7.10
2022-11-16T06:03:17.823Z,7.27
2022-11-16T06:05:45.812Z,13.07
2022-11-16T06:08:16.461Z,35.07
2022-11-16T06:10:44.486Z,8.67
2022-11-16T06:13:13.729Z,8.00
2022-11-16T06:15:42.476Z,7.13
2022-11-16T06:18:14.287Z,7.87
2022-11-16T06:20:42.073Z,7.53
2022-11-16T06:23:11.279Z,7.20
2022-11-16T06:25:39.694Z,7.57
2022-11-16T06:28:08.436Z,8.03
2022-11-16T06:30:39.472Z,7.00
2022-11-16T06:33:08.470Z,7.20
2022-11-16T06:35:37.340Z,9.00
2022-11-16T06:38:05.801Z,10.13
2022-11-16T06:40:34.130Z,6.70
2022-11-16T06:43:03.645Z,6.67
2022-11-16T06:45:31.587Z,6.70
2022-11-16T06:48:03.155Z,6.50
2022-11-16T06:50:31.048Z,5.73
2022-11-16T06:53:00.811Z,6.13
2022-11-16T06:55:30.482Z,6.70
2022-11-16T06:57:58.347Z,6.43
2022-11-16T07:00:27.879Z,7.57
2022-11-16T07:02:56.641Z,7.10
2022-11-16T07:05:25.825Z,6.23
2022-11-16T07:07:56.075Z,7.03
2022-11-16T07:10:25.927Z,8.13
2022-11-16T07:12:54.763Z,9.33
2022-11-16T07:15:24.676Z,10.50
2022-11-16T07:17:52.667Z,8.13
2022-11-16T07:20:21.105Z,8.73
2022-11-16T07:22:50.367Z,10.17
2022-11-16T07:25:19.355Z,8.80
2022-11-16T07:27:47.945Z,8.80
2022-11-16T07:30:16.078Z,10.63
2022-11-16T07:33:12.767Z,11.33
2022-11-16T07:36:03.040Z,16.60
2022-11-16T07:38:33.313Z,10.43
2022-11-16T07:41:02.273Z,10.67
2022-11-16T07:43:32.663Z,13.43
2022-11-16T07:49:33.046Z,9.90
2022-11-16T07:52:09.728Z,8.83
2022-11-16T07:54:57.416Z,11.10
2022-11-16T07:57:27.696Z,12.83
2022-11-16T07:59:57.473Z,11.60
2022-11-16T08:02:25.304Z,9.53
2022-11-16T08:04:53.601Z,8.67
2022-11-16T08:07:26.177Z,8.33
2022-11-16T08:09:58.202Z,26.63
2022-11-16T08:12:26.375Z,19.53
2022-11-16T08:14:55.230Z,10.37
2022-11-16T08:17:23.828Z,11.10
2022-11-16T08:19:53.674Z,7.27
2022-11-16T08:22:22.336Z,10.80
2022-11-16T08:24:50.186Z,8.90
2022-11-16T08:27:20.126Z,7.60
2022-11-16T08:29:51.954Z,7.87
2022-11-16T08:32:19.819Z,7.10
2022-11-16T08:34:47.927Z,5.87
2022-11-16T08:37:16.367Z,6.50
2022-11-16T08:39:45.882Z,6.10
2022-11-16T08:42:13.976Z,6.70
2022-11-16T08:44:47.922Z,5.63
2022-11-16T08:47:18.637Z,4.80
2022-11-16T08:49:50.259Z,10.77
2022-11-16T08:52:20.095Z,7.67
2022-11-16T08:54:49.987Z,13.33
2022-11-16T08:57:18.470Z,17.60
2022-11-16T08:59:51.019Z,8.47
2022-11-16T09:02:25.372Z,5.87
2022-11-16T09:04:53.418Z,4.20
2022-11-16T09:07:21.616Z,3.90
2022-11-16T09:09:49.539Z,4.33
2022-11-16T09:12:17.727Z,4.17
2022-11-16T09:14:45.540Z,4.53
2022-11-16T09:17:18.796Z,4.00
2022-11-16T09:19:49.734Z,4.20
2022-11-16T09:22:17.602Z,4.30
2022-11-16T09:24:45.409Z,4.10
2022-11-16T09:27:13.284Z,3.93
2022-11-16T09:29:41.061Z,4.10
2022-11-16T09:32:08.840Z,3.47
2022-11-16T09:34:38.075Z,3.93
2022-11-16T09:37:05.826Z,4.47
2022-11-16T09:39:34.393Z,6.47
2022-11-16T09:42:20.892Z,4.77
2022-11-16T09:45:00.779Z,3.90
2022-11-16T09:47:44.311Z,4.20
2022-11-16T09:50:27.091Z,4.23
2022-11-16T09:52:58.873Z,5.37
2022-11-16T09:55:34.835Z,4.20
2022-11-16T09:58:09.058Z,5.93
2022-11-16T10:00:38.617Z,3.90
2022-11-16T10:03:11.996Z,3.73
2022-11-16T10:05:46.646Z,4.13
2022-11-16T10:08:19.388Z,4.73
2022-11-16T10:10:55.941Z,4.03
2022-11-16T10:13:35.754Z,3.97
2022-11-16T10:16:13.382Z,4.37
2022-11-16T10:18:54.091Z,5.03
2022-11-16T10:21:42.916Z,7.30
2022-11-16T10:24:44.289Z,4.37
2022-11-16T10:27:35.282Z,4.73
2022-11-16T10:30:10.270Z,4.27
2022-11-16T10:32:42.260Z,4.27
2022-11-16T10:35:17.982Z,4.97
2022-11-16T10:37:50.284Z,4.90
2022-11-16T10:40:21.898Z,5.57
2022-11-16T10:42:58.822Z,4.67
2022-11-16T10:45:34.298Z,4.33
2022-11-16T10:48:12.329Z,5.37
2022-11-16T10:50:43.340Z,4.27
2022-11-16T10:53:16.253Z,4.37
2022-11-16T10:55:44.025Z,4.50
2022-11-16T10:58:12.024Z,4.30
2022-11-16T11:00:45.382Z,5.37
2022-11-16T11:03:13.460Z,4.50
2022-11-16T11:05:52.312Z,4.20
2022-11-16T11:08:31.392Z,4.13
2022-11-16T11:11:22.681Z,7.70
2022-11-16T11:14:04.297Z,4.10
2022-11-16T11:16:32.649Z,4.30
2022-11-16T11:19:18.579Z,5.43
2022-11-16T11:21:48.310Z,4.70
2022-11-16T11:24:46.025Z,6.93
2022-11-16T11:27:06.805Z,4.30
2022-11-16T11:29:38.765Z,5.90
2022-11-16T11:32:09.037Z,4.50
2022-11-16T11:34:42.736Z,4.40
2022-11-16T11:37:17.065Z,3.53
2022-11-16T11:39:46.310Z,4.23
2022-11-16T11:42:23.571Z,4.07
2022-11-16T11:44:58.899Z,3.53
2022-11-16T11:47:57.259Z,3.50
2022-11-16T11:50:35.473Z,3.83
2022-11-16T11:53:08.578Z,3.90
2022-11-16T11:55:37.766Z,3.33
2022-11-16T11:58:12.307Z,4.70
2022-11-16T12:00:50.998Z,5.53
2022-11-16T12:03:47.084Z,3.53
2022-11-16T12:06:23.604Z,4.63
2022-11-16T12:09:05.909Z,3.67
2022-11-16T12:11:48.936Z,7.40
2022-11-16T12:14:41.980Z,3.77
2022-11-16T12:17:17.855Z,4.77
2022-11-16T12:20:18.094Z,3.97
2022-11-16T12:23:04.432Z,4.17
2022-11-16T12:25:38.722Z,7.40
2022-11-16T12:28:23.671Z,4.47
2022-11-16T12:31:03.398Z,6.90
2022-11-16T12:33:45.399Z,4.60
2022-11-16T12:36:25.147Z,7.93
2022-11-16T12:39:06.953Z,4.50
2022-11-16T12:41:56.082Z,3.83
2022-11-16T12:44:41.112Z,7.67
2022-11-16T12:47:20.184Z,5.53
2022-11-16T12:50:09.039Z,10.30
2022-11-16T12:52:56.153Z,7.93
2022-11-16T12:55:30.209Z,3.33
2022-11-16T12:58:11.479Z,5.50
2022-11-16T13:00:53.539Z,5.17
2022-11-16T13:03:29.759Z,3.03
2022-11-16T13:06:03.822Z,3.80
2022-11-16T13:08:48.020Z,2.63
2022-11-16T13:11:20.761Z,4.13
2022-11-16T13:13:54.188Z,3.63
2022-11-16T13:16:25.394Z,3.03
2022-11-16T13:18:54.939Z,3.33
2022-11-16T13:21:36.421Z,3.43
2022-11-16T13:24:17.822Z,3.13
2022-11-16T13:26:55.219Z,2.50
2022-11-16T13:29:31.887Z,2.93
2022-11-16T13:32:08.083Z,3.57
2022-11-16T13:34:38.590Z,2.40
2022-11-16T13:37:48.119Z,3.50
2022-11-16T13:40:25.690Z,2.20
2022-11-16T13:43:06.142Z,2.50
2022-11-16T13:45:38.926Z,4.47
2022-11-16T13:48:23.215Z,2.40
2022-11-16T13:50:55.094Z,2.50
2022-11-16T13:54:25.065Z,2.20
2022-11-16T13:56:18.216Z,2.80
2022-11-16T13:58:48.714Z,2.80
2022-11-16T14:01:18.229Z,2.97
2022-11-16T14:03:48.839Z,3.67
2022-11-16T14:07:00.227Z,2.70
2022-11-16T14:09:48.293Z,2.93
2022-11-16T14:12:58.492Z,2.60
2022-11-16T14:15:35.462Z,3.33
2022-11-16T14:18:37.372Z,2.43
2022-11-16T14:21:16.232Z,2.07
2022-11-16T14:24:03.424Z,3.63
2022-11-16T14:26:43.633Z,3.33
2022-11-16T14:29:24.009Z,4.33
2022-11-16T14:31:53.841Z,2.87
2022-11-16T14:34:26.364Z,2.70
2022-11-16T14:36:56.563Z,2.73
2022-11-16T14:39:41.152Z,3.93
2022-11-16T14:42:19.461Z,2.43
2022-11-16T14:44:50.958Z,4.70
2022-11-16T14:47:25.734Z,4.60
2022-11-16T14:49:54.359Z,3.40
2022-11-16T14:52:32.628Z,2.77
2022-11-16T14:55:05.133Z,2.40
2022-11-16T14:57:33.204Z,4.83
2022-11-16T15:00:12.755Z,2.20
2022-11-16T15:02:41.757Z,3.30
2022-11-16T15:05:16.778Z,3.67
2022-11-16T15:07:49.699Z,4.33
2022-11-16T15:10:20.300Z,6.50
2022-11-16T15:12:51.618Z,3.37
2022-11-16T15:15:23.466Z,2.70
2022-11-16T15:18:07.242Z,3.60
2022-11-16T15:20:36.623Z,3.70
2022-11-16T15:23:14.521Z,5.17
2022-11-16T15:25:44.974Z,3.53
2022-11-16T15:28:17.588Z,3.80
2022-11-16T15:30:48.011Z,4.70
2022-11-16T15:33:18.851Z,3.50
2022-11-16T15:35:47.266Z,3.70
2022-11-16T15:38:19.139Z,3.90
2022-11-16T15:40:51.226Z,4.47
2022-11-16T15:43:21.303Z,7.13
2022-11-16T15:45:50.334Z,2.63
2022-11-16T15:48:21.107Z,2.97
2022-11-16T15:51:05.991Z,3.03
2022-11-16T15:53:37.798Z,5.27
2022-11-16T15:56:09.677Z,4.17
2022-11-16T15:58:39.524Z,4.70
2022-11-16T16:01:07.924Z,6.33
2022-11-16T16:03:37.419Z,7.67
2022-11-16T16:06:07.740Z,7.40
2022-11-16T16:08:39.051Z,4.97
2022-11-16T16:11:12.358Z,5.13
2022-11-16T16:13:42.658Z,5.60
2022-11-16T16:16:24.054Z,5.53
2022-11-16T16:18:52.619Z,3.83
2022-11-16T16:21:20.639Z,4.30
2022-11-16T16:23:51.538Z,5.57
2022-11-16T16:26:19.647Z,4.97
2022-11-16T16:28:48.683Z,6.43
2022-11-16T16:31:18.732Z,6.07
2022-11-16T16:33:46.523Z,10.63
2022-11-16T16:36:15.306Z,6.43
2022-11-16T16:38:43.222Z,7.90
2022-11-16T16:41:24.339Z,5.33
2022-11-16T16:43:52.800Z,3.83
2022-11-16T16:46:22.004Z,5.63
2022-11-16T16:48:49.959Z,4.53
2022-11-16T16:51:17.843Z,5.03
2022-11-16T16:53:45.801Z,6.83
2022-11-16T16:56:19.255Z,7.43
2022-11-16T16:58:47.163Z,4.03
2022-11-16T17:01:15.069Z,6.40
2022-11-16T17:03:42.963Z,4.60
2022-11-16T17:06:10.790Z,5.17
2022-11-16T17:08:39.401Z,5.10
2022-11-16T17:11:07.343Z,13.27
2022-11-16T17:13:36.925Z,19.50
2022-11-16T17:16:06.679Z,7.57
2022-11-16T17:18:34.507Z,9.13
2022-11-16T17:21:05.108Z,9.27
2022-11-16T17:23:33.489Z,9.97
2022-11-16T17:26:04.796Z,7.93
2022-11-16T17:28:32.772Z,9.80
2022-11-16T17:31:04.345Z,7.30
2022-11-16T17:33:34.868Z,10.63
2022-11-16T17:36:03.916Z,11.73
2022-11-16T17:38:31.743Z,15.33
2022-11-16T17:41:05.006Z,13.77
2022-11-16T17:43:33.201Z,14.87
2022-11-16T17:46:10.549Z,14.03
2022-11-16T17:48:39.613Z,13.67
2022-11-16T17:51:07.634Z,15.93
2022-11-16T17:53:36.670Z,14.23
2022-11-16T17:56:05.686Z,12.60
2022-11-16T17:58:34.560Z,10.37
2022-11-16T18:01:02.429Z,10.07
2022-11-16T18:03:31.790Z,10.73
2022-11-16T18:06:04.891Z,10.13
2022-11-16T18:08:32.955Z,7.93
2022-11-16T18:11:05.651Z,9.30
2022-11-16T18:13:34.053Z,9.17
2022-11-16T18:16:06.791Z,9.77
2022-11-16T18:18:37.858Z,8.50
2022-11-16T18:21:06.702Z,8.87
2022-11-16T18:23:35.844Z,9.03
2022-11-16T18:26:08.881Z,8.73
2022-11-16T18:28:37.206Z,8.37
2022-11-16T18:31:06.096Z,8.23
2022-11-16T18:33:37.633Z,9.77
2022-11-16T18:36:06.919Z,9.97
2022-11-16T18:38:34.877Z,7.20
2022-11-16T18:41:07.453Z,7.47
2022-11-16T18:43:36.196Z,7.93
2022-11-16T18:46:04.451Z,7.07
2022-11-16T18:48:32.541Z,9.63
2022-11-16T18:51:03.016Z,9.10
2022-11-16T18:53:32.723Z,11.43
2022-11-16T18:56:01.321Z,7.43
2022-11-16T18:58:49.707Z,7.13
2022-11-16T19:01:19.397Z,7.80
2022-11-16T19:03:47.718Z,6.03
2022-11-16T19:06:17.849Z,7.60
2022-11-16T19:08:53.948Z,6.60
2022-11-16T19:11:24.849Z,6.57
2022-11-16T19:13:54.989Z,7.77
2022-11-16T19:16:23.824Z,5.50
2022-11-16T19:18:51.910Z,6.43
2022-11-16T19:21:21.912Z,5.63
2022-11-16T19:23:51.596Z,5.90
2022-11-16T19:26:21.356Z,6.50
2022-11-16T19:28:51.059Z,7.63
2022-11-16T19:31:21.124Z,5.77
2022-11-16T19:33:54.453Z,6.33
2022-11-16T19:36:26.981Z,6.00
2022-11-16T19:38:54.960Z,6.47
2022-11-16T19:41:23.506Z,6.20
2022-11-16T19:43:56.899Z,6.63
2022-11-16T19:46:25.436Z,5.77
2022-11-16T19:48:53.958Z,7.33
2022-11-16T19:51:24.936Z,8.20
2022-11-16T19:53:53.238Z,9.33
2022-11-16T19:56:23.001Z,7.23
2022-11-16T19:58:50.958Z,9.07
2022-11-16T20:01:20.616Z,12.47
2022-11-16T20:03:50.016Z,5.83
2022-11-16T20:06:19.855Z,5.77
2022-11-16T20:08:50.582Z,6.37
2022-11-16T20:11:20.589Z,6.40
2022-11-16T20:13:48.963Z,6.67
2022-11-16T20:16:18.504Z,6.77
2022-11-16T20:18:47.603Z,5.77
2022-11-16T20:21:20.402Z,6.13
2022-11-16T20:23:51.440Z,7.67
2022-11-16T20:26:20.423Z,7.50
2022-11-16T20:28:50.944Z,9.40
2022-11-16T20:31:20.185Z,12.00
2022-11-16T20:33:51.714Z,8.07
2022-11-16T20:36:20.553Z,8.73
2022-11-16T20:38:50.246Z,8.10
2022-11-16T20:41:19.530Z,10.03
2022-11-16T20:43:48.434Z,14.90
2022-11-16T20:46:17.884Z,7.73
2022-11-16T20:48:46.141Z,7.57
2022-11-16T20:51:16.863Z,7.00
2022-11-16T20:53:46.266Z,8.97
2022-11-16T20:56:16.291Z,8.93
2022-11-16T20:58:44.553Z,7.63
2022-11-16T21:01:14.392Z,9.40
2022-11-16T21:03:44.504Z,7.97
2022-11-16T21:06:13.502Z,5.33
2022-11-16T21:08:42.345Z,6.73
2022-11-16T21:11:16.797Z,9.13
2022-11-16T21:14:03.579Z,7.80
2022-11-16T21:16:32.057Z,5.47
2022-11-16T21:19:00.121Z,5.97
2022-11-16T21:21:29.168Z,4.40
2022-11-16T21:23:56.962Z,5.53
2022-11-16T21:26:28.179Z,4.37
2022-11-16T21:28:56.817Z,5.23
2022-11-16T21:31:26.571Z,3.83
2022-11-16T21:33:55.329Z,4.63
2022-11-16T21:36:25.831Z,4.70
2022-11-16T21:38:54.514Z,4.20
2022-11-16T21:41:23.978Z,4.90
2022-11-16T21:43:53.488Z,4.63
2022-11-16T21:46:24.873Z,4.30
2022-11-16T21:48:54.314Z,4.70
2022-11-16T21:51:24.707Z,6.60
2022-11-16T21:53:53.083Z,4.97
2022-11-16T21:56:23.178Z,5.53
2022-11-16T21:58:53.826Z,4.33
2022-11-16T22:01:22.651Z,3.83
2022-11-16T22:04:11.491Z,5.23
2022-11-16T22:06:56.898Z,5.13
2022-11-16T22:09:24.831Z,4.37
2022-11-16T22:11:52.682Z,3.40
2022-11-16T22:14:21.808Z,3.47
2022-11-16T22:16:49.602Z,4.97
2022-11-16T22:19:17.366Z,3.20
2022-11-16T22:21:45.305Z,3.33
2022-11-16T22:24:13.095Z,3.50
2022-11-16T22:26:41.100Z,5.83
2022-11-16T22:29:08.935Z,4.50
2022-11-16T22:31:38.121Z,3.20
2022-11-16T22:34:05.938Z,3.30
2022-11-16T22:36:33.711Z,4.27
2022-11-16T22:39:01.964Z,4.50
2022-11-16T22:41:29.762Z,4.30
2022-11-16T22:43:57.530Z,4.00
2022-11-16T22:46:25.347Z,5.70
2022-11-16T22:48:54.507Z,3.70
2022-11-16T22:51:24.140Z,3.57
2022-11-16T22:53:54.022Z,5.37
2022-11-16T22:56:22.020Z,3.70
2022-11-16T22:58:49.867Z,5.67
2022-11-16T23:01:17.895Z,3.40
2022-11-16T23:03:46.145Z,5.43
2022-11-16T23:06:15.569Z,3.00
2022-11-16T23:08:43.583Z,3.80
2022-11-16T23:11:32.257Z,3.00
2022-11-16T23:14:14.346Z,4.00
2022-11-16T23:16:43.051Z,3.10
2022-11-16T23:19:26.583Z,3.03
2022-11-16T23:22:13.902Z,7.50
2022-11-16T23:24:55.752Z,3.57
2022-11-16T23:27:33.069Z,4.67
2022-11-16T23:30:05.465Z,2.70
2022-11-16T23:32:37.143Z,2.43
2022-11-16T23:35:05.399Z,5.87
2022-11-16T23:37:34.592Z,4.40
2022-11-16T23:40:02.674Z,2.87
2022-11-16T23:42:47.875Z,2.93
2022-11-16T23:45:16.658Z,2.10
2022-11-16T23:47:44.684Z,2.10
2022-11-16T23:50:12.471Z,2.03
2022-11-16T23:52:41.697Z,2.43
2022-11-16T23:55:10.004Z,2.13
2022-11-16T23:57:37.808Z,2.23
